ダーウィン国際空港の過去48時間の天気

ダーウィン国際空港 (Darwin Airport)

現在時刻: 4/22 12:46 ACST (4/22 03:16 UTC) 以下の時間は現地時間です。

過去48時間のMETAR気象情報
時間 風向 風速(m/s) 視程 気温(℃) 湿度(%) 気圧(hPa) 天気現象
22 12:30 5 10km以上 33 44 1010
22 12:00 東南東 4 10km以上 32 49 1010
22 11:30 東南東 4 10km以上 31 52 1011
22 11:00 東南東 3 10km以上 31 55 1011
22 10:30 4 10km以上 31 59 1011
22 10:00 4 10km以上 30 59 1011
22 09:30 3 10km以上 30 66 1011
22 09:00 4 10km以上 29 70 1011
22 08:30 東南東 3 10km以上 28 74 1011
22 08:00 東南東 2 10km以上 28 74 1011
22 07:30 2 10km以上 26 89 1010
22 07:00 2 10km以上 25 89 1010
22 06:30 3 10km以上 26 84 1010
22 06:00 2 10km以上 25 89 1010 周辺でしゅう雨
22 05:30 2 10km以上 25 94 1009
22 05:00 1 10km以上 25 94 1009
22 04:30 東北東 2 10km以上 25 94 1009
22 04:00 東北東 1 10km以上 25 94 1009
22 03:30 東北東 2 10km以上 25 94 1010
22 03:00 北北東 1 10km以上 25 89 1010
22 02:30 北北東 1 10km以上 26 89 1010
22 02:00 1 10km以上 26 89 1010
22 01:30 東北東 2 10km以上 26 84 1010
22 01:00 北東 2 10km以上 26 89 1011
22 00:30 北東 2 10km以上 26 84 1011
22 00:00 西 1 10km以上 26 84 1011
21 23:30 西南西 1 10km以上 28 79 1011
21 23:00 西 1 10km以上 27 79 1011
21 22:30 西南西 2 10km以上 28 74 1011
21 22:00 西南西 2 10km以上 28 74 1010
21 21:30 西南西 2 10km以上 28 74 1010
21 21:00 西 2 10km以上 28 74 1010
21 20:30 西 3 10km以上 29 70 1010
21 20:00 西 3 10km以上 29 66 1010
21 19:30 西 3 10km以上 29 62 1009
21 19:00 西北西 2 10km以上 30 59 1009
21 18:30 北西 3 10km以上 30 59 1009
21 18:00 北西 3 10km以上 31 55 1008
21 17:30 北北西 3 10km以上 31 59 1008
21 17:00 北北西 4 10km以上 32 56 1008
21 16:30 北北西 4 10km以上 32 52 1008
21 16:00 北北西 4 10km以上 32 56 1008
21 15:30 北北西 5 10km以上 32 56 1008
21 15:00 北北西 4 10km以上 31 59 1008
21 14:30 西北西 4 10km以上 32 56 1009
21 14:00 西北西 4 10km以上 32 52 1009
21 13:30 西 4 10km以上 33 53 1009
21 13:00 西南西 4 10km以上 33 44 1010
21 12:30 北東 2 10km以上 33 44 1010
21 12:00 東南東 2 10km以上 32 49 1011
21 11:30 東北東 4 10km以上 31 55 1011
21 11:00 東北東 2 10km以上 31 55 1012
21 10:30 東北東 4 10km以上 30 62 1012
21 10:00 4 10km以上 30 66 1012
21 09:30 東南東 4 10km以上 29 74 1012
21 09:00 南東 3 10km以上 29 74 1012
21 08:30 南南東 3 10km以上 28 79 1011
21 08:00 南南東 3 10km以上 27 84 1011
21 07:30 南東 3 10km以上 26 84 1011
21 07:00 南南東 2 10km以上 25 89 1010
21 06:30 南南東 2 10km以上 25 89 1010
21 06:00 南東 2 10km以上 25 94 1009
21 05:30 東南東 2 10km以上 26 89 1009
21 05:00 南東 1 10km以上 25 94 1009
21 04:30 南南西 1 10km以上 25 94 1009
21 04:00 南南西 1 10km以上 25 94 1009
21 03:30 南南西 1 10km以上 25 94 1009
21 03:00 南南西 1 10km以上 25 94 1009
21 02:30 南南西 1 10km以上 25 94 1009
21 02:00 南南西 1 10km以上 25 94 1009
21 01:30 南南西 2 10km以上 25 94 1010
21 01:00 静穏 0 10km以上 25 89 1010
21 00:30 静穏 0 10km以上 25 89 1010
21 00:00 南南西 1 10km以上 26 89 1010
20 23:30 南西 1 10km以上 26 89 1010
20 23:00 南南西 1 10km以上 27 84 1010
20 22:30 静穏 0 10km以上 26 84 1010
20 22:00 1 10km以上 27 79 1010
20 21:30 1 10km以上 27 79 1010
20 21:00 1 10km以上 28 74 1010
20 20:30 2 10km以上 28 74 1009
20 20:00 北北東 3 10km以上 28 74 1009
20 19:30 北北東 4 10km以上 29 70 1009
20 19:00 3 10km以上 29 70 1009
20 18:30 4 10km以上 30 62 1008
20 18:00 5 10km以上 31 59 1008
20 17:30 4 10km以上 32 52 1008
20 17:00 北北西 4 10km以上 32 52 1008
20 16:30 北北西 5 10km以上 33 46 1008
20 16:00 北西 4 10km以上 33 46 1008
20 15:30 北西 4 10km以上 33 36 1008
20 15:00 南西 3 10km以上 33 36 1008
20 14:30 東南東 4 10km以上 33 36 1009
20 14:00 南東 5 10km以上 34 36 1009
20 13:30 東北東 5 10km以上 33 38 1010
20 13:00 東北東 5 10km以上 33 41 1010
YPDN 220300Z 10009KT 9999 FEW045 33/19 Q1010 NOSIG
YPDN 220230Z 11007KT 9999 FEW040 32/20 Q1010 NOSIG
YPDN 220200Z 11007KT 9999 FEW036 31/20 Q1011 NOSIG
YPDN 220130Z 11006KT 080V140 9999 FEW036 31/21 Q1011 NOSIG
YPDN 220100Z 09008KT 9999 FEW036 31/22 Q1011 NOSIG
YPDN 220030Z 08007KT 9999 FEW036 30/21 Q1011 NOSIG
YPDN 220000Z 08005KT 9999 FEW028 30/23 Q1011 NOSIG
YPDN 212330Z 10007KT 9999 FEW024 29/23 Q1011 NOSIG
YPDN 212300Z 12005KT 9999 FEW020 28/23 Q1011 NOSIG
YPDN 212230Z 11003KT 9999 FEW020 28/23 Q1011 NOSIG
YPDN 212200Z 10004KT 9999 FEW018 26/24 Q1010
YPDN 212130Z 10004KT 9999 FEW018 25/23 Q1010
YPDN 212100Z 10005KT 9999 FEW016 26/23 Q1010
YPDN 212030Z 09004KT 9999 VCSH FEW016 25/23 Q1010
YPDN 212000Z 08004KT 9999 FEW016 25/24 Q1009
YPDN 211930Z AUTO 09002KT 9999 // NCD 25/24 Q1009
YPDN 211900Z AUTO 06003KT 9999 // NCD 25/24 Q1009
YPDN 211830Z AUTO 07002KT 9999 // NCD 25/24 Q1009
YPDN 211800Z AUTO 07003KT 9999 // NCD 25/24 Q1010
YPDN 211730Z AUTO 03002KT 9999 // NCD 25/23 Q1010
YPDN 211700Z AUTO 03001KT 9999 // NCD 26/24 Q1010
YPDN 211630Z AUTO 10002KT 9999 // SCT036 26/24 Q1010
YPDN 211600Z AUTO 07003KT 9999 // NCD 26/23 Q1010
YPDN 211530Z AUTO 05003KT 9999 // NCD 26/24 Q1011
YPDN 211500Z AUTO 05004KT 9999 // NCD 26/23 Q1011
YPDN 211430Z 26001KT CAVOK 26/23 Q1011
YPDN 211400Z 25002KT CAVOK 28/24 Q1011
YPDN 211330Z 26002KT CAVOK 27/23 Q1011
YPDN 211300Z 24004KT CAVOK 28/23 Q1011
YPDN 211230Z 24004KT CAVOK 28/23 Q1010
YPDN 211200Z 24004KT CAVOK 28/23 Q1010 NOSIG RMK USE TAF FOR ARRIVALS AFTER 1230Z
YPDN 211130Z 27003KT CAVOK 28/23 Q1010 NOSIG RMK USE TAF FOR ARRIVALS AFTER 1230Z
YPDN 211100Z 26005KT 9999 FEW025 29/23 Q1010 NOSIG RMK USE TAF FOR ARRIVALS AFTER 1230Z
YPDN 211030Z 26005KT 9999 FEW030 29/22 Q1010 NOSIG RMK USE TAF FOR ARRIVALS AFTER 1230Z
YPDN 211000Z 28005KT 9999 FEW030 29/21 Q1009 NOSIG RMK USE TAF FOR ARRIVALS AFTER 1230Z
YPDN 210930Z 30004KT 9999 FEW030 30/21 Q1009 NOSIG
YPDN 210900Z 32005KT 9999 FEW035 30/21 Q1009
YPDN 210830Z 32006KT 9999 FEW035 31/21 Q1008 NOSIG
YPDN 210800Z 33006KT 9999 FEW035 31/22 Q1008 NOSIG
YPDN 210730Z 34007KT 9999 FEW035 32/22 Q1008 NOSIG
YPDN 210700Z 34007KT 9999 FEW035 32/21 Q1008 NOSIG
YPDN 210630Z 34008KT 9999 FEW035 32/22 Q1008 NOSIG
YPDN 210600Z 34009KT 9999 FEW035 32/22 Q1008
YPDN 210530Z 33008KT 9999 FEW037 31/22 Q1008 NOSIG
YPDN 210500Z 29008KT 9999 FEW037 32/22 Q1009 NOSIG
YPDN 210430Z 29008KT 9999 FEW037 32/21 Q1009 NOSIG
YPDN 210400Z 26008KT CAVOK 33/22 Q1009
YPDN 210330Z 25008KT 220V280 CAVOK 33/19 Q1010 FM0500 33009KT CAVOK
YPDN 210300Z 04004KT 9999 FEW045 33/19 Q1010 FM0530 33009KT CAVOK
YPDN 210230Z 11004KT 070V180 9999 FEW040 32/20 Q1011 NOSIG
YPDN 210200Z 07007KT 9999 FEW034 31/21 Q1011
YPDN 210130Z 07004KT 020V100 9999 FEW030 31/21 Q1012 NOSIG
YPDN 210100Z 07007KT 9999 SCT026 30/22 Q1012 NOSIG
YPDN 210030Z 10008KT 9999 FEW022 30/23 Q1012 NOSIG
YPDN 210000Z 11007KT 9999 FEW020 29/24 Q1012 NOSIG
YPDN 202330Z 13006KT 9999 FEW020 29/24 Q1012 NOSIG
YPDN 202300Z 15005KT 9999 FEW018 28/24 Q1011 NOSIG
YPDN 202230Z 15005KT 9999 FEW018 27/24 Q1011 NOSIG
YPDN 202200Z 14006KT 9999 FEW016 26/23 Q1011
YPDN 202130Z 16004KT 9999 FEW016 25/23 Q1010 NOSIG
YPDN 202100Z 15003KT 9999 FEW016 25/23 Q1010
YPDN 202030Z 14003KT 9999 FEW016 25/24 Q1009 NOSIG
YPDN 202000Z 11004KT 9999 FEW016 26/24 Q1009
YPDN 201930Z AUTO 13002KT 9999 // NCD 25/24 Q1009
YPDN 201900Z AUTO 21001KT 9999 // NCD 25/24 Q1009
YPDN 201830Z AUTO 21001KT 9999 // NCD 25/24 Q1009
YPDN 201800Z AUTO 21001KT 9999 // NCD 25/24 Q1009
YPDN 201730Z AUTO 21002KT 9999 // NCD 25/24 Q1009
YPDN 201700Z AUTO 21002KT 9999 // NCD 25/24 Q1009
YPDN 201630Z AUTO 21002KT 9999 // NCD 25/24 Q1009
YPDN 201600Z AUTO 21003KT 9999 // NCD 25/24 Q1010
YPDN 201530Z AUTO 00000KT 9999 // NCD 25/23 Q1010
YPDN 201500Z AUTO 00000KT 9999 // NCD 25/23 Q1010
YPDN 201430Z 21001KT CAVOK 26/24 Q1010
YPDN 201400Z 22002KT CAVOK 26/24 Q1010
YPDN 201330Z 20002KT CAVOK 27/24 Q1010
YPDN 201300Z 00000KT CAVOK 26/23 Q1010
YPDN 201230Z 01001KT CAVOK 27/23 Q1010
YPDN 201200Z 35001KT CAVOK 27/23 Q1010 NOSIG RMK USE TAF FOR ARRIVALS AFTER 1230Z
YPDN 201130Z 36002KT CAVOK 28/23 Q1010 NOSIG RMK USE TAF FOR ARRIVALS AFTER 1230Z
YPDN 201100Z 01003KT CAVOK 28/23 Q1009 NOSIG RMK USE TAF FOR ARRIVALS AFTER 1230Z
YPDN 201030Z 02005KT CAVOK 28/23 Q1009 NOSIG RMK USE TAF FOR ARRIVALS AFTER 1230Z
YPDN 201000Z 02007KT 9999 FEW040 29/23 Q1009 NOSIG RMK USE TAF FOR ARRIVALS AFTER 1230Z
YPDN 200930Z 01006KT CAVOK 29/23 Q1009 NOSIG
YPDN 200900Z 36007KT CAVOK 30/22 Q1008
YPDN 200830Z AUTO 35009KT 9999 // NCD 31/22 Q1008
YPDN 200800Z 35008KT 9999 FEW040 32/21 Q1008 NOSIG
YPDN 200730Z 33007KT 9999 FEW040 32/21 Q1008
YPDN 200700Z 34009KT CAVOK 33/20 Q1008
YPDN 200630Z 31008KT CAVOK 33/20 Q1008 NOSIG
YPDN 200600Z 31007KT CAVOK 33/16 Q1008
YPDN 200530Z 23005KT CAVOK 33/16 Q1008
YPDN 200500Z 11007KT CAVOK 33/16 Q1009
YPDN 200430Z 13009KT CAVOK 34/17 Q1009 NOSIG
YPDN 200400Z 07010KT 040V120 CAVOK 33/17 Q1010
YPDN 200330Z 07010KT CAVOK 33/18 Q1010